Jolo, Philippines
Current Conditions -  °F | °C
As of 5:00 PM on Sunday 26 Oct 2014 (Local Time) from RPMZ Reporting Station
Broken Clouds Broken Clouds  
Wind Chill: 88°   Ceiling: 30000
Heat Index: 100°   Visibility: 6mi
Dew Point: 77°   Wind: 0mph
Humidity: 70%   Direction: NA
Pressure: 29.83"   Gusts: NA
Location:  6.05°N, 120.99°E
Report Text: RPMZ 260900Z 00000KT 9999 FEW017CB BKN300 31/25 Q1010 RMK A2986 CB NE
Loading
Personal Weather Stations






























Interactive Weather Map
Tropical Storm Tracking
New forecast layout! Learn more

10-Day Weather Forecast

Advertisements
Track Severe Weather on mobile